Amsterdam, Netherlands

9:32 AM CEST on August 28, 2016 (GMT +0200)
v. H. Goedhartlaan, Amstelveen - North | | Change Station

Elev -10 ft 52.31 °N, 4.87 °E | Updated 9 seconds ago

Light Rain Showers
Light Showers Rain
71.2 °F
Feels Like 71.2 °F
N
3.4
Wind Variable Wind from WSW
Gusts 4.9 mph

Today
High -- | Low -- °F
--% Chance of Precip.
Yesterday
High -- | Low -- °F
Precip. -- in
Pressure 29.86 in
Visibility 3.1 miles
Clouds Few 5000 ft
Dew Point 68 °F
Humidity 89%
Rainfall 0.00 in
Snow Depth Not available.
6:45 AM 8:36 PM
Waning Crescent, 18% visible
METAR EHAM 280725Z 25008KT 210V280 5000 -SHRA VCTS FEW050CB 21/19 Q1011 NOSIG
Pressure 29.86 in
Visibility 3.1 miles
Clouds Few 5000 ft
Dew Point 68 °F
Humidity 89%
Rainfall 0.00 in
Snow Depth Not available.
6:45 AM 8:36 PM
Waning Crescent, 18% visible
METAR EHAM 280725Z 25008KT 210V280 5000 -SHRA VCTS FEW050CB 21/19 Q1011 NOSIG

10-Day Weather Forecast

×

Almanac

Astronomy

Aug. 28, 2016 Rise Set
Actual Time
Civil Twilight
Nautical Twilight
Astronomical Twilight
Moon
Length of Visible Light
Length of Day
Tomorrow will be .
, % of the Moon is Illuminated

Today's Extremes

Country Highs Country Lows

Community

WunderPhotos

Upload Photos

1,935,533 photos uploaded!

WunderBlog® & News

Nearby

Air Quality

  Air Quality AQ Index Pollutant
Not available.

Snow Depth

Station Depth Elevation

Earthquake Activity

City Distance Mag. Time & Date
Minimum magnitude displayed is 2.5.

Coastal Water Temperatures

Place Temperature

Stations

Nearby Weather Stations

Station Location Temp. Windchill Dew Point Humidity Wind Precip. Elev Updated Type